sensor_id;sensor_type;location;lat;lon;timestamp;pressure;altitude;pressure_sealevel;temperature;humidity
41254;BME280;26987;59.928;30.306;2023-03-01T00:02:26;101132.47;;;-4.18;62.81
41254;BME280;26987;59.928;30.306;2023-03-01T00:04:54;101133.00;;;-4.13;62.87
41254;BME280;26987;59.928;30.306;2023-03-01T00:07:22;101129.25;;;-4.09;61.93
41254;BME280;26987;59.928;30.306;2023-03-01T00:09:50;101141.63;;;-3.98;62.34
41254;BME280;26987;59.928;30.306;2023-03-01T00:12:18;101138.81;;;-3.95;62.51
41254;BME280;26987;59.928;30.306;2023-03-01T00:14:47;101137.88;;;-3.94;62.19
41254;BME280;26987;59.928;30.306;2023-03-01T00:17:15;101120.88;;;-4.01;62.03
41254;BME280;26987;59.928;30.306;2023-03-01T00:19:43;101143.13;;;-3.81;61.49
41254;BME280;26987;59.928;30.306;2023-03-01T00:22:11;101149.94;;;-3.78;62.37
41254;BME280;26987;59.928;30.306;2023-03-01T00:24:39;101139.03;;;-3.85;61.39
41254;BME280;26987;59.928;30.306;2023-03-01T00:27:07;101150.38;;;-3.71;61.53
41254;BME280;26987;59.928;30.306;2023-03-01T00:29:35;101151.22;;;-3.71;61.63
41254;BME280;26987;59.928;30.306;2023-03-01T00:32:05;101150.91;;;-3.66;62.10
41254;BME280;26987;59.928;30.306;2023-03-01T00:34:32;101148.16;;;-3.64;61.93
41254;BME280;26987;59.928;30.306;2023-03-01T00:37:00;101153.94;;;-3.59;62.81
41254;BME280;26987;59.928;30.306;2023-03-01T00:39:31;101090.50;;;-3.90;61.87
41254;BME280;26987;59.928;30.306;2023-03-01T00:42:00;101136.44;;;-3.59;62.45
41254;BME280;26987;59.928;30.306;2023-03-01T00:44:28;101143.56;;;-3.48;61.74
41254;BME280;26987;59.928;30.306;2023-03-01T00:46:56;101134.13;;;-3.50;61.88
41254;BME280;26987;59.928;30.306;2023-03-01T00:49:25;101134.78;;;-3.47;62.73
41254;BME280;26987;59.928;30.306;2023-03-01T00:51:54;101144.84;;;-3.40;62.02
41254;BME280;26987;59.928;30.306;2023-03-01T00:54:23;101141.47;;;-3.43;61.91
41254;BME280;26987;59.928;30.306;2023-03-01T00:56:51;101119.66;;;-3.56;62.32
41254;BME280;26987;59.928;30.306;2023-03-01T00:59:19;101140.53;;;-3.42;61.91
41254;BME280;26987;59.928;30.306;2023-03-01T01:01:47;101142.72;;;-3.35;62.43
41254;BME280;26987;59.928;30.306;2023-03-01T01:04:15;101149.44;;;-3.31;61.70
41254;BME280;26987;59.928;30.306;2023-03-01T01:06:45;101150.06;;;-3.27;61.45
41254;BME280;26987;59.928;30.306;2023-03-01T01:09:16;101121.34;;;-3.42;62.04
41254;BME280;26987;59.928;30.306;2023-03-01T01:11:45;101132.47;;;-3.25;62.03
41254;BME280;26987;59.928;30.306;2023-03-01T01:14:14;101136.66;;;-3.23;61.25
41254;BME280;26987;59.928;30.306;2023-03-01T01:16:43;101138.53;;;-3.25;62.46
41254;BME280;26987;59.928;30.306;2023-03-01T01:19:14;101147.34;;;-3.26;61.81
41254;BME280;26987;59.928;30.306;2023-03-01T01:21:42;101138.84;;;-3.30;62.20
41254;BME280;26987;59.928;30.306;2023-03-01T01:24:12;101146.09;;;-3.33;62.81
41254;BME280;26987;59.928;30.306;2023-03-01T01:26:40;101161.63;;;-3.30;62.76
41254;BME280;26987;59.928;30.306;2023-03-01T01:29:09;101154.88;;;-3.34;62.72
41254;BME280;26987;59.928;30.306;2023-03-01T01:31:38;101145.56;;;-3.38;62.91
41254;BME280;26987;59.928;30.306;2023-03-01T01:34:08;101147.38;;;-3.39;62.92
41254;BME280;26987;59.928;30.306;2023-03-01T01:36:40;101144.94;;;-3.42;62.99
41254;BME280;26987;59.928;30.306;2023-03-01T01:39:08;101097.00;;;-3.83;63.72
41254;BME280;26987;59.928;30.306;2023-03-01T01:41:41;101153.34;;;-3.50;63.98
41254;BME280;26987;59.928;30.306;2023-03-01T01:44:16;101147.66;;;-3.57;64.20
41254;BME280;26987;59.928;30.306;2023-03-01T01:46:47;101148.41;;;-3.55;64.57
41254;BME280;26987;59.928;30.306;2023-03-01T01:49:22;101149.97;;;-3.65;64.47
41254;BME280;26987;59.928;30.306;2023-03-01T01:51:55;101144.28;;;-3.72;64.35
41254;BME280;26987;59.928;30.306;2023-03-01T01:54:29;101137.06;;;-3.81;65.65
41254;BME280;26987;59.928;30.306;2023-03-01T01:57:03;101155.16;;;-3.78;65.03
41254;BME280;26987;59.928;30.306;2023-03-01T01:59:33;101156.22;;;-3.81;66.04
41254;BME280;26987;59.928;30.306;2023-03-01T02:02:03;101141.09;;;-3.90;66.39
41254;BME280;26987;59.928;30.306;2023-03-01T02:04:32;101156.81;;;-3.90;65.82
41254;BME280;26987;59.928;30.306;2023-03-01T02:07:03;101151.16;;;-3.97;67.17
41254;BME280;26987;59.928;30.306;2023-03-01T02:09:34;101157.16;;;-3.95;66.88
41254;BME280;26987;59.928;30.306;2023-03-01T02:12:05;101141.38;;;-4.08;67.38
41254;BME280;26987;59.928;30.306;2023-03-01T02:14:34;101164.47;;;-4.00;67.21
41254;BME280;26987;59.928;30.306;2023-03-01T02:17:02;101169.91;;;-4.03;67.78
41254;BME280;26987;59.928;30.306;2023-03-01T02:19:42;101164.56;;;-4.01;68.22
41254;BME280;26987;59.928;30.306;2023-03-01T02:22:18;101133.34;;;-4.32;68.49
41254;BME280;26987;59.928;30.306;2023-03-01T02:24:56;101116.56;;;-4.43;68.47
41254;BME280;26987;59.928;30.306;2023-03-01T02:27:31;101172.31;;;-4.13;68.47
41254;BME280;26987;59.928;30.306;2023-03-01T02:30:02;101168.94;;;-4.15;68.62
41254;BME280;26987;59.928;30.306;2023-03-01T02:32:31;101171.84;;;-4.20;69.57
41254;BME280;26987;59.928;30.306;2023-03-01T02:34:58;101169.63;;;-4.26;69.54
41254;BME280;26987;59.928;30.306;2023-03-01T02:37:26;101161.13;;;-4.29;69.56
41254;BME280;26987;59.928;30.306;2023-03-01T02:39:58;101160.56;;;-4.35;70.44
41254;BME280;26987;59.928;30.306;2023-03-01T02:42:31;101180.75;;;-4.22;70.20
41254;BME280;26987;59.928;30.306;2023-03-01T02:44:59;101181.59;;;-4.22;70.64
41254;BME280;26987;59.928;30.306;2023-03-01T02:47:29;101181.59;;;-4.22;70.59
41254;BME280;26987;59.928;30.306;2023-03-01T02:49:57;101179.81;;;-4.21;70.53
41254;BME280;26987;59.928;30.306;2023-03-01T02:52:36;101180.84;;;-4.24;70.90
41254;BME280;26987;59.928;30.306;2023-03-01T02:55:09;101171.22;;;-4.23;70.40
41254;BME280;26987;59.928;30.306;2023-03-01T02:57:40;101174.84;;;-4.26;70.95
41254;BME280;26987;59.928;30.306;2023-03-01T03:00:10;101177.38;;;-4.24;71.15
41254;BME280;26987;59.928;30.306;2023-03-01T03:02:48;101178.97;;;-4.22;70.45
41254;BME280;26987;59.928;30.306;2023-03-01T03:05:23;101176.66;;;-4.26;71.34
41254;BME280;26987;59.928;30.306;2023-03-01T03:07:55;101172.09;;;-4.37;70.80
41254;BME280;26987;59.928;30.306;2023-03-01T03:10:26;101172.63;;;-4.32;71.00
41254;BME280;26987;59.928;30.306;2023-03-01T03:12:56;101180.47;;;-4.32;71.89
41254;BME280;26987;59.928;30.306;2023-03-01T03:15:27;101174.13;;;-4.28;71.21
41254;BME280;26987;59.928;30.306;2023-03-01T03:17:58;101177.78;;;-4.31;71.00
41254;BME280;26987;59.928;30.306;2023-03-01T03:20:27;101153.97;;;-4.40;71.59
41254;BME280;26987;59.928;30.306;2023-03-01T03:22:56;101172.84;;;-4.35;71.91
41254;BME280;26987;59.928;30.306;2023-03-01T03:25:26;101172.09;;;-4.37;71.79
41254;BME280;26987;59.928;30.306;2023-03-01T03:27:55;101185.19;;;-4.37;71.29
41254;BME280;26987;59.928;30.306;2023-03-01T03:30:25;101184.44;;;-4.39;71.61
41254;BME280;26987;59.928;30.306;2023-03-01T03:32:54;101181.91;;;-4.41;71.71
41254;BME280;26987;59.928;30.306;2023-03-01T03:35:25;101186.13;;;-4.38;71.81
41254;BME280;26987;59.928;30.306;2023-03-01T03:37:57;101188.00;;;-4.40;72.02
41254;BME280;26987;59.928;30.306;2023-03-01T03:40:34;101188.84;;;-4.40;71.45
41254;BME280;26987;59.928;30.306;2023-03-01T03:43:02;101184.63;;;-4.43;72.07
41254;BME280;26987;59.928;30.306;2023-03-01T03:45:31;101190.81;;;-4.44;72.03
41254;BME280;26987;59.928;30.306;2023-03-01T03:48:02;101170.72;;;-4.58;72.35
41254;BME280;26987;59.928;30.306;2023-03-01T03:50:32;101189.25;;;-4.46;71.82
41254;BME280;26987;59.928;30.306;2023-03-01T03:53:01;101182.81;;;-4.55;71.92
41254;BME280;26987;59.928;30.306;2023-03-01T03:55:29;101188.78;;;-4.53;72.06
41254;BME280;26987;59.928;30.306;2023-03-01T03:58:01;101195.50;;;-4.49;72.34
41254;BME280;26987;59.928;30.306;2023-03-01T04:00:33;101192.16;;;-4.51;71.42
41254;BME280;26987;59.928;30.306;2023-03-01T04:03:02;101194.84;;;-4.52;71.60
41254;BME280;26987;59.928;30.306;2023-03-01T04:05:32;101180.38;;;-4.58;72.14
41254;BME280;26987;59.928;30.306;2023-03-01T04:07:59;101194.84;;;-4.52;71.88
41254;BME280;26987;59.928;30.306;2023-03-01T04:10:34;101165.19;;;-4.81;71.79
41254;BME280;26987;59.928;30.306;2023-03-01T04:13:03;101201.22;;;-4.57;71.88
41254;BME280;26987;59.928;30.306;2023-03-01T04:15:31;101201.31;;;-4.58;71.81
41254;BME280;26987;59.928;30.306;2023-03-01T04:18:00;101193.66;;;-4.61;72.25
41254;BME280;26987;59.928;30.306;2023-03-01T04:20:30;101112.88;;;-5.10;72.35
41254;BME280;26987;59.928;30.306;2023-03-01T04:23:05;101197.09;;;-4.61;73.17
41254;BME280;26987;59.928;30.306;2023-03-01T04:25:40;101180.28;;;-4.71;72.77
41254;BME280;26987;59.928;30.306;2023-03-01T04:28:09;101168.28;;;-4.88;73.30
41254;BME280;26987;59.928;30.306;2023-03-01T04:30:38;101190.31;;;-4.78;73.05
41254;BME280;26987;59.928;30.306;2023-03-01T04:33:07;101197.59;;;-4.69;73.73
41254;BME280;26987;59.928;30.306;2023-03-01T04:35:36;101194.50;;;-4.75;73.49
41254;BME280;26987;59.928;30.306;2023-03-01T04:38:06;101185.19;;;-4.79;73.15
41254;BME280;26987;59.928;30.306;2023-03-01T04:40:34;101194.13;;;-4.69;73.50
41254;BME280;26987;59.928;30.306;2023-03-01T04:43:03;101186.03;;;-4.79;73.03
41254;BME280;26987;59.928;30.306;2023-03-01T04:45:32;101208.25;;;-4.72;73.62
41254;BME280;26987;59.928;30.306;2023-03-01T04:48:02;101125.78;;;-5.21;73.10
41254;BME280;26987;59.928;30.306;2023-03-01T04:50:30;101192.84;;;-4.76;73.08
41254;BME280;26987;59.928;30.306;2023-03-01T04:52:58;101218.53;;;-4.69;73.65
41254;BME280;26987;59.928;30.306;2023-03-01T04:55:28;101224.50;;;-4.66;72.96
41254;BME280;26987;59.928;30.306;2023-03-01T04:57:56;101230.59;;;-4.66;73.27
41254;BME280;26987;59.928;30.306;2023-03-01T05:00:24;101222.06;;;-4.70;72.68
41254;BME280;26987;59.928;30.306;2023-03-01T05:02:53;101226.41;;;-4.69;72.61
41254;BME280;26987;59.928;30.306;2023-03-01T05:05:24;101247.69;;;-4.60;72.34
41254;BME280;26987;59.928;30.306;2023-03-01T05:07:54;101239.94;;;-4.62;72.61
41254;BME280;26987;59.928;30.306;2023-03-01T05:10:23;101240.22;;;-4.66;73.81
41254;BME280;26987;59.928;30.306;2023-03-01T05:12:53;101231.63;;;-4.69;73.91
41254;BME280;26987;59.928;30.306;2023-03-01T05:15:20;101219.75;;;-4.74;73.33
41254;BME280;26987;59.928;30.306;2023-03-01T05:17:51;101249.94;;;-4.54;73.31
41254;BME280;26987;59.928;30.306;2023-03-01T05:20:20;101239.66;;;-4.57;73.09
41254;BME280;26987;59.928;30.306;2023-03-01T05:22:50;101250.78;;;-4.53;72.73
41254;BME280;26987;59.928;30.306;2023-03-01T05:25:18;101243.75;;;-4.53;72.83
41254;BME280;26987;59.928;30.306;2023-03-01T05:27:47;101238.88;;;-4.45;73.45
41254;BME280;26987;59.928;30.306;2023-03-01T05:30:17;101239.03;;;-4.33;73.29
41254;BME280;26987;59.928;30.306;2023-03-01T05:32:47;101235.84;;;-4.24;72.98
41254;BME280;26987;59.928;30.306;2023-03-01T05:35:16;101237.03;;;-4.15;71.84
41254;BME280;26987;59.928;30.306;2023-03-01T05:37:46;101239.06;;;-4.06;72.07
41254;BME280;26987;59.928;30.306;2023-03-01T05:40:16;101219.03;;;-4.07;71.73
41254;BME280;26987;59.928;30.306;2023-03-01T05:42:45;101224.53;;;-3.97;71.24
41254;BME280;26987;59.928;30.306;2023-03-01T05:45:14;101188.16;;;-4.01;70.42
41254;BME280;26987;59.928;30.306;2023-03-01T05:47:45;101227.56;;;-3.62;70.31
41254;BME280;26987;59.928;30.306;2023-03-01T05:50:15;101252.56;;;-2.53;66.66
41254;BME280;26987;59.928;30.306;2023-03-01T05:52:46;101154.84;;;-1.84;60.78
41254;BME280;26987;59.928;30.306;2023-03-01T05:55:15;101237.75;;;-0.51;56.88
41254;BME280;26987;59.928;30.306;2023-03-01T05:57:43;101250.91;;;0.16;53.55
41254;BME280;26987;59.928;30.306;2023-03-01T06:00:12;101250.91;;;0.92;51.23
41254;BME280;26987;59.928;30.306;2023-03-01T06:02:41;101267.50;;;1.35;49.33
41254;BME280;26987;59.928;30.306;2023-03-01T06:05:12;101217.22;;;1.56;47.95
41254;BME280;26987;59.928;30.306;2023-03-01T06:07:41;101253.22;;;2.28;46.71
41254;BME280;26987;59.928;30.306;2023-03-01T06:10:10;101208.38;;;2.36;45.34
41254;BME280;26987;59.928;30.306;2023-03-01T06:12:40;101251.13;;;2.61;44.89
41254;BME280;26987;59.928;30.306;2023-03-01T06:15:09;101247.09;;;2.57;44.74
41254;BME280;26987;59.928;30.306;2023-03-01T06:17:38;101248.47;;;2.61;45.09
41254;BME280;26987;59.928;30.306;2023-03-01T06:20:13;101246.53;;;2.04;45.56
41254;BME280;26987;59.928;30.306;2023-03-01T06:22:42;101245.09;;;1.80;46.65
41254;BME280;26987;59.928;30.306;2023-03-01T06:25:11;101214.31;;;1.59;46.75
41254;BME280;26987;59.928;30.306;2023-03-01T06:27:40;101240.31;;;1.54;46.96
41254;BME280;26987;59.928;30.306;2023-03-01T06:30:09;101244.09;;;1.20;47.88
41254;BME280;26987;59.928;30.306;2023-03-01T06:32:38;101244.28;;;1.07;48.46
41254;BME280;26987;59.928;30.306;2023-03-01T06:35:08;101236.38;;;0.86;49.14
41254;BME280;26987;59.928;30.306;2023-03-01T06:37:39;101241.59;;;0.66;49.63
41254;BME280;26987;59.928;30.306;2023-03-01T06:40:09;101238.03;;;0.56;50.48
41254;BME280;26987;59.928;30.306;2023-03-01T06:42:39;101218.09;;;0.30;50.43
41254;BME280;26987;59.928;30.306;2023-03-01T06:45:08;101236.19;;;0.35;51.02
41254;BME280;26987;59.928;30.306;2023-03-01T06:47:36;101248.28;;;0.16;51.66
41254;BME280;26987;59.928;30.306;2023-03-01T06:50:05;101252.13;;;0.12;51.85
41254;BME280;26987;59.928;30.306;2023-03-01T06:52:32;101255.53;;;-0.09;52.63
41254;BME280;26987;59.928;30.306;2023-03-01T06:55:02;101252.31;;;-0.13;53.09
41254;BME280;26987;59.928;30.306;2023-03-01T06:57:31;101249.25;;;-0.41;53.82
41254;BME280;26987;59.928;30.306;2023-03-01T06:59:59;101241.84;;;-0.70;55.18
41254;BME280;26987;59.928;30.306;2023-03-01T07:02:27;101246.13;;;-0.92;56.34
41254;BME280;26987;59.928;30.306;2023-03-01T07:04:54;101251.41;;;-1.15;56.95
41254;BME280;26987;59.928;30.306;2023-03-01T07:07:22;101247.75;;;-1.36;58.33
41254;BME280;26987;59.928;30.306;2023-03-01T07:09:50;101238.47;;;-1.54;58.91
41254;BME280;26987;59.928;30.306;2023-03-01T07:12:21;101236.34;;;-1.60;58.96
41254;BME280;26987;59.928;30.306;2023-03-01T07:14:48;101242.28;;;-1.69;59.42
41254;BME280;26987;59.928;30.306;2023-03-01T07:17:16;101229.69;;;-1.77;60.00
41254;BME280;26987;59.928;30.306;2023-03-01T07:19:45;101246.47;;;-1.67;59.85
41254;BME280;26987;59.928;30.306;2023-03-01T07:22:13;101246.47;;;-1.67;59.99
41254;BME280;26987;59.928;30.306;2023-03-01T07:24:41;101202.25;;;-1.97;60.54
41254;BME280;26987;59.928;30.306;2023-03-01T07:27:09;101224.50;;;-1.90;61.41
41254;BME280;26987;59.928;30.306;2023-03-01T07:29:38;101243.03;;;-1.92;61.80
41254;BME280;26987;59.928;30.306;2023-03-01T07:32:07;101226.16;;;-2.13;62.48
41254;BME280;26987;59.928;30.306;2023-03-01T07:34:34;101248.16;;;-2.14;62.74
41254;BME280;26987;59.928;30.306;2023-03-01T07:37:02;101242.59;;;-2.23;64.14
41254;BME280;26987;59.928;30.306;2023-03-01T07:39:30;101188.41;;;-2.61;64.45
41254;BME280;26987;59.928;30.306;2023-03-01T07:41:58;101236.09;;;-2.30;65.32
41254;BME280;26987;59.928;30.306;2023-03-01T07:44:26;101237.50;;;-2.37;65.85
41254;BME280;26987;59.928;30.306;2023-03-01T07:46:55;101234.16;;;-2.39;66.26
41254;BME280;26987;59.928;30.306;2023-03-01T07:49:24;101234.03;;;-2.38;65.77
41254;BME280;26987;59.928;30.306;2023-03-01T07:51:53;101218.50;;;-2.41;65.48
41254;BME280;26987;59.928;30.306;2023-03-01T07:54:21;101214.59;;;-2.35;66.21
41254;BME280;26987;59.928;30.306;2023-03-01T07:56:49;101225.66;;;-2.43;66.04
41254;BME280;26987;59.928;30.306;2023-03-01T07:59:17;101198.84;;;-2.35;65.96
41254;BME280;26987;59.928;30.306;2023-03-01T08:01:45;101212.53;;;-2.19;65.91
41254;BME280;26987;59.928;30.306;2023-03-01T08:04:14;101201.47;;;-2.11;64.90
41254;BME280;26987;59.928;30.306;2023-03-01T08:06:42;101180.91;;;-2.17;64.60
41254;BME280;26987;59.928;30.306;2023-03-01T08:09:11;101193.22;;;-2.06;65.07
41254;BME280;26987;59.928;30.306;2023-03-01T08:11:39;101206.66;;;-1.98;64.16
41254;BME280;26987;59.928;30.306;2023-03-01T08:14:07;101206.81;;;-1.88;64.18
41254;BME280;26987;59.928;30.306;2023-03-01T08:16:36;101191.88;;;-1.87;64.37
41254;BME280;26987;59.928;30.306;2023-03-01T08:19:05;101193.00;;;-1.79;64.10
41254;BME280;26987;59.928;30.306;2023-03-01T08:21:34;101183.22;;;-1.76;64.23
41254;BME280;26987;59.928;30.306;2023-03-01T08:24:04;101176.88;;;-1.74;63.99
41254;BME280;26987;59.928;30.306;2023-03-01T08:26:33;101154.00;;;-1.85;63.76
41254;BME280;26987;59.928;30.306;2023-03-01T08:29:01;101204.44;;;-1.55;63.74
41254;BME280;26987;59.928;30.306;2023-03-01T08:31:32;101192.66;;;-1.62;64.27
41254;BME280;26987;59.928;30.306;2023-03-01T08:34:06;101187.63;;;-1.77;65.04
41254;BME280;26987;59.928;30.306;2023-03-01T08:36:39;101204.88;;;-1.61;65.00
41254;BME280;26987;59.928;30.306;2023-03-01T08:39:08;101207.00;;;-1.67;66.11
41254;BME280;26987;59.928;30.306;2023-03-01T08:41:36;101201.03;;;-1.69;66.55
41254;BME280;26987;59.928;30.306;2023-03-01T08:44:04;101203.41;;;-1.77;67.11
41254;BME280;26987;59.928;30.306;2023-03-01T08:46:34;101186.41;;;-1.84;67.76
41254;BME280;26987;59.928;30.306;2023-03-01T08:49:04;101205.69;;;-1.97;68.19
41254;BME280;26987;59.928;30.306;2023-03-01T08:51:32;101203.69;;;-1.93;68.43
41254;BME280;26987;59.928;30.306;2023-03-01T08:54:04;101203.25;;;-1.87;68.95
41254;BME280;26987;59.928;30.306;2023-03-01T08:56:33;101188.41;;;-1.88;68.23
41254;BME280;26987;59.928;30.306;2023-03-01T08:59:01;101200.44;;;-1.72;68.27
41254;BME280;26987;59.928;30.306;2023-03-01T09:01:29;101195.78;;;-1.69;68.30
41254;BME280;26987;59.928;30.306;2023-03-01T09:03:57;101201.53;;;-1.63;67.95
41254;BME280;26987;59.928;30.306;2023-03-01T09:06:25;101196.91;;;-1.48;67.29
41254;BME280;26987;59.928;30.306;2023-03-01T09:08:52;101194.16;;;-1.35;66.55
41254;BME280;26987;59.928;30.306;2023-03-01T09:11:22;101195.16;;;-1.13;65.99
41254;BME280;26987;59.928;30.306;2023-03-01T09:13:50;101177.09;;;-1.07;65.87
41254;BME280;26987;59.928;30.306;2023-03-01T09:16:20;101142.03;;;-1.19;65.77
41254;BME280;26987;59.928;30.306;2023-03-01T09:18:49;101173.03;;;-0.88;65.68
41254;BME280;26987;59.928;30.306;2023-03-01T09:21:18;101184.38;;;-0.65;65.33
41254;BME280;26987;59.928;30.306;2023-03-01T09:23:47;101182.22;;;-0.59;64.85
41254;BME280;26987;59.928;30.306;2023-03-01T09:26:17;101189.50;;;-0.52;64.57
41254;BME280;26987;59.928;30.306;2023-03-01T09:28:48;101193.09;;;-0.53;65.60
41254;BME280;26987;59.928;30.306;2023-03-01T09:31:17;101182.09;;;-0.58;65.70
41254;BME280;26987;59.928;30.306;2023-03-01T09:33:46;101183.75;;;-0.45;65.41
41254;BME280;26987;59.928;30.306;2023-03-01T09:36:16;101162.59;;;-0.67;65.81
41254;BME280;26987;59.928;30.306;2023-03-01T09:38:44;101188.78;;;-0.54;66.17
41254;BME280;26987;59.928;30.306;2023-03-01T09:41:44;101180.03;;;-0.43;66.65
41254;BME280;26987;59.928;30.306;2023-03-01T09:44:21;101175.25;;;-0.49;67.23
41254;BME280;26987;59.928;30.306;2023-03-01T09:46:51;101181.97;;;-0.56;68.14
41254;BME280;26987;59.928;30.306;2023-03-01T09:49:23;101177.31;;;-0.64;69.04
41254;BME280;26987;59.928;30.306;2023-03-01T09:51:58;101181.13;;;-0.57;68.88
41254;BME280;26987;59.928;30.306;2023-03-01T09:54:27;101168.50;;;-0.42;69.16
41254;BME280;26987;59.928;30.306;2023-03-01T09:57:18;101130.44;;;-0.49;69.07
41254;BME280;26987;59.928;30.306;2023-03-01T10:00:04;101165.44;;;-0.14;68.59
41254;BME280;26987;59.928;30.306;2023-03-01T10:02:39;101168.50;;;-0.30;67.74
41254;BME280;26987;59.928;30.306;2023-03-01T10:05:19;101119.41;;;-0.43;68.30
41254;BME280;26987;59.928;30.306;2023-03-01T10:07:56;101137.81;;;-0.31;68.19
41254;BME280;26987;59.928;30.306;2023-03-01T10:10:30;101162.09;;;-0.16;67.55
41254;BME280;26987;59.928;30.306;2023-03-01T10:13:05;101156.56;;;-0.13;67.88
41254;BME280;26987;59.928;30.306;2023-03-01T10:15:44;101143.50;;;-0.15;67.93
41254;BME280;26987;59.928;30.306;2023-03-01T10:18:17;101146.88;;;-0.13;67.77
41254;BME280;26987;59.928;30.306;2023-03-01T10:20:52;101093.50;;;-0.59;67.65
41254;BME280;26987;59.928;30.306;2023-03-01T10:23:20;101126.72;;;-0.35;67.91
41254;BME280;26987;59.928;30.306;2023-03-01T10:25:56;101121.06;;;-0.30;68.91
41254;BME280;26987;59.928;30.306;2023-03-01T10:28:36;101082.22;;;-0.61;68.85
41254;BME280;26987;59.928;30.306;2023-03-01T10:31:12;101131.63;;;-0.09;69.51
41254;BME280;26987;59.928;30.306;2023-03-01T10:33:41;101106.44;;;-0.02;68.48
41254;BME280;26987;59.928;30.306;2023-03-01T10:36:09;101117.75;;;0.10;68.78
41254;BME280;26987;59.928;30.306;2023-03-01T10:38:51;101113.69;;;0.06;68.99
41254;BME280;26987;59.928;30.306;2023-03-01T10:41:20;101109.72;;;-0.09;69.78
41254;BME280;26987;59.928;30.306;2023-03-01T10:43:51;101107.88;;;-0.09;70.51
41254;BME280;26987;59.928;30.306;2023-03-01T10:46:26;101085.25;;;-0.11;70.87
41254;BME280;26987;59.928;30.306;2023-03-01T10:49:06;101107.66;;;0.16;70.83
41254;BME280;26987;59.928;30.306;2023-03-01T10:51:34;101105.34;;;0.01;70.56
41254;BME280;26987;59.928;30.306;2023-03-01T10:54:04;101099.47;;;-0.03;71.18
41254;BME280;26987;59.928;30.306;2023-03-01T10:56:46;101092.06;;;0.12;71.25
41254;BME280;26987;59.928;30.306;2023-03-01T10:59:27;101066.53;;;0.13;71.38
41254;BME280;26987;59.928;30.306;2023-03-01T11:02:12;101084.47;;;0.41;71.04
41254;BME280;26987;59.928;30.306;2023-03-01T11:04:57;101075.31;;;0.45;71.41
41254;BME280;26987;59.928;30.306;2023-03-01T11:07:25;101076.94;;;0.36;71.42
41254;BME280;26987;59.928;30.306;2023-03-01T11:09:53;101064.16;;;0.31;71.86
41254;BME280;26987;59.928;30.306;2023-03-01T11:12:21;101067.47;;;0.33;71.58
41254;BME280;26987;59.928;30.306;2023-03-01T11:14:50;101075.50;;;0.32;71.50
41254;BME280;26987;59.928;30.306;2023-03-01T11:17:23;101047.06;;;0.26;71.81
41254;BME280;26987;59.928;30.306;2023-03-01T11:20:10;101054.75;;;0.39;71.62
41254;BME280;26987;59.928;30.306;2023-03-01T11:22:47;101047.72;;;0.28;71.85
41254;BME280;26987;59.928;30.306;2023-03-01T11:25:19;101037.69;;;0.21;71.88
41254;BME280;26987;59.928;30.306;2023-03-01T11:27:50;101026.84;;;0.15;72.57
41254;BME280;26987;59.928;30.306;2023-03-01T11:30:23;101020.47;;;0.17;72.67
41254;BME280;26987;59.928;30.306;2023-03-01T11:33:01;101022.28;;;0.17;72.90
41254;BME280;26987;59.928;30.306;2023-03-01T11:35:32;101027.38;;;0.08;73.87
41254;BME280;26987;59.928;30.306;2023-03-01T11:38:15;101023.75;;;0.09;74.22
41254;BME280;26987;59.928;30.306;2023-03-01T11:40:47;101026.13;;;0.12;74.82
41254;BME280;26987;59.928;30.306;2023-03-01T11:43:26;101019.75;;;0.15;75.19
41254;BME280;26987;59.928;30.306;2023-03-01T11:46:08;101032.03;;;0.26;75.58
41254;BME280;26987;59.928;30.306;2023-03-01T11:48:51;101027.47;;;0.28;75.87
41254;BME280;26987;59.928;30.306;2023-03-01T11:51:25;101014.69;;;0.23;75.83
41254;BME280;26987;59.928;30.306;2023-03-01T11:54:13;101006.16;;;0.10;76.78
41254;BME280;26987;59.928;30.306;2023-03-01T11:56:48;101025.19;;;0.14;77.28
41254;BME280;26987;59.928;30.306;2023-03-01T12:02:29;101017.53;;;0.10;78.01
41254;BME280;26987;59.928;30.306;2023-03-01T12:05:17;101011.03;;;0.15;78.51
41254;BME280;26987;59.928;30.306;2023-03-01T12:07:53;100987.31;;;-0.07;79.36
41254;BME280;26987;59.928;30.306;2023-03-01T12:10:26;101010.16;;;0.04;79.95
41254;BME280;26987;59.928;30.306;2023-03-01T12:13:10;101004.63;;;0.07;80.87
41254;BME280;26987;59.928;30.306;2023-03-01T12:15:53;100996.75;;;-0.04;80.93
41254;BME280;26987;59.928;30.306;2023-03-01T12:18:51;100994.38;;;-0.07;81.60
41254;BME280;26987;59.928;30.306;2023-03-01T12:21:35;100991.44;;;-0.14;82.39
41254;BME280;26987;59.928;30.306;2023-03-01T12:24:37;100983.94;;;-0.19;83.20
41254;BME280;26987;59.928;30.306;2023-03-01T12:27:27;100982.44;;;-0.33;84.31
41254;BME280;26987;59.928;30.306;2023-03-01T12:30:09;100977.78;;;-0.29;84.63
41254;BME280;26987;59.928;30.306;2023-03-01T12:32:48;100987.16;;;-0.36;85.40
41254;BME280;26987;59.928;30.306;2023-03-01T12:35:41;100976.63;;;-0.36;85.64
41254;BME280;26987;59.928;30.306;2023-03-01T12:38:22;100976.28;;;-0.43;86.93
41254;BME280;26987;59.928;30.306;2023-03-01T12:44:01;100960.41;;;-0.53;87.86
41254;BME280;26987;59.928;30.306;2023-03-01T12:46:39;100959.81;;;-0.57;nan
41254;BME280;26987;59.928;30.306;2023-03-01T12:49:13;100963.44;;;-0.58;90.33
41254;BME280;26987;59.928;30.306;2023-03-01T12:51:46;100959.94;;;-0.58;91.14
41254;BME280;26987;59.928;30.306;2023-03-01T12:54:25;100945.63;;;-0.66;92.13
41254;BME280;26987;59.928;30.306;2023-03-01T12:56:55;100939.06;;;-0.71;92.99
41254;BME280;26987;59.928;30.306;2023-03-01T12:59:28;100948.59;;;-0.80;93.87
41254;BME280;26987;59.928;30.306;2023-03-01T13:02:08;100939.53;;;-0.87;94.99
41254;BME280;26987;59.928;30.306;2023-03-01T13:04:50;100918.41;;;-1.09;96.33
41254;BME280;26987;59.928;30.306;2023-03-01T13:07:27;100932.38;;;-0.97;96.81
41254;BME280;26987;59.928;30.306;2023-03-01T13:10:01;100940.81;;;-0.82;94.29
41254;BME280;26987;59.928;30.306;2023-03-01T13:12:52;100929.69;;;-0.85;95.33